Terminal Aerodrome Forecast
Issued by NWS

Home | Current Version | Previous Version | Text Only | Print | Product List | Glossary On
Versions: 1 2 3 4 5 6 7 8 9 10 11 12 13 14 15 16 17 18 19 20 21 22 23
686
FTUS43 KGRB 261735
TAFMTW
TAF
KMTW 261735Z 2618/2718 22011G21KT P6SM SCT100
     FM262100 25010KT P6SM SCT060 BKN090
     FM270400 26005KT P6SM SCT080 BKN150
     FM271400 15004KT P6SM SCT150=

USA.gov is the U.S. government's official web portal to all federal, state and local government web resources and services.